createdAt,value
2023-12-17T00:04:52.572Z,22.15
2023-12-17T00:09:53.819Z,20.67
2023-12-17T00:14:55.112Z,19.30
2023-12-17T00:19:56.479Z,17.75
2023-12-17T00:24:57.815Z,16.70
2023-12-17T00:29:59.079Z,13.00
2023-12-17T00:35:00.375Z,17.60
2023-12-17T00:40:01.630Z,17.92
2023-12-17T00:45:02.954Z,13.73
2023-12-17T00:50:04.551Z,12.93
2023-12-17T00:55:06.018Z,16.90
2023-12-17T01:00:07.962Z,14.40
2023-12-17T01:05:09.353Z,14.50
2023-12-17T01:10:10.631Z,15.55
2023-12-17T01:15:11.914Z,21.10
2023-12-17T01:20:13.299Z,13.13
2023-12-17T01:25:14.591Z,16.65
2023-12-17T01:30:15.981Z,13.02
2023-12-17T01:35:17.333Z,15.60
2023-12-17T01:45:20.032Z,16.33
2023-12-17T01:50:23.454Z,11.07
2023-12-17T01:55:25.710Z,11.70
2023-12-17T02:00:27.315Z,13.10
2023-12-17T02:05:28.656Z,12.07
2023-12-17T02:15:31.101Z,13.68
2023-12-17T02:20:32.639Z,11.25
2023-12-17T02:25:33.917Z,13.02
2023-12-17T02:30:35.217Z,11.43
2023-12-17T02:35:36.532Z,10.98
2023-12-17T02:40:37.780Z,10.98
2023-12-17T02:45:39.033Z,13.13
2023-12-17T02:50:40.311Z,10.57
2023-12-17T02:55:41.665Z,15.43
2023-12-17T03:00:43.465Z,11.43
2023-12-17T03:05:44.744Z,11.55
2023-12-17T03:10:46.056Z,10.10
2023-12-17T03:20:48.545Z,10.95
2023-12-17T03:25:49.819Z,14.43
2023-12-17T03:30:51.618Z,14.75
2023-12-17T03:35:52.982Z,14.13
2023-12-17T03:40:54.223Z,11.75
2023-12-17T03:45:55.481Z,10.63
2023-12-17T03:50:56.827Z,10.55
2023-12-17T03:55:58.100Z,10.50
2023-12-17T04:00:59.531Z,8.52
2023-12-17T04:06:01.637Z,10.60
2023-12-17T04:11:02.956Z,11.23
2023-12-17T04:16:04.407Z,11.65
2023-12-17T04:21:05.870Z,11.82
2023-12-17T04:26:07.146Z,10.70
2023-12-17T04:31:08.399Z,15.50
2023-12-17T04:36:09.754Z,11.98
2023-12-17T04:41:11.037Z,16.10
2023-12-17T04:46:12.282Z,15.63
2023-12-17T04:56:14.813Z,16.92
2023-12-17T05:01:16.177Z,14.52
2023-12-17T05:06:17.547Z,14.65
2023-12-17T05:11:18.827Z,14.77
2023-12-17T05:16:20.201Z,11.93
2023-12-17T05:21:21.787Z,11.20
2023-12-17T05:26:23.077Z,11.07
2023-12-17T05:31:24.526Z,13.73
2023-12-17T05:36:25.803Z,17.45
2023-12-17T05:41:27.159Z,12.75
2023-12-17T05:46:28.396Z,13.25
2023-12-17T05:51:29.739Z,13.30
2023-12-17T05:56:31.141Z,10.57
2023-12-17T06:01:32.565Z,17.02
2023-12-17T06:06:34.131Z,15.55
2023-12-17T06:11:35.552Z,17.73
2023-12-17T06:16:40.826Z,14.60
2023-12-17T06:21:42.125Z,12.23
2023-12-17T06:26:43.461Z,11.90
2023-12-17T06:31:44.729Z,14.48
2023-12-17T06:36:46.036Z,15.63
2023-12-17T06:41:47.380Z,15.10
2023-12-17T06:46:49.922Z,12.20
2023-12-17T06:51:51.135Z,15.00
2023-12-17T06:56:52.388Z,9.85
2023-12-17T07:01:54.192Z,14.02
2023-12-17T07:06:55.433Z,13.68
2023-12-17T07:11:56.716Z,11.80
2023-12-17T07:16:59.719Z,12.98
2023-12-17T07:22:01.174Z,16.77
2023-12-17T07:27:02.506Z,12.00
2023-12-17T07:32:03.964Z,13.30
2023-12-17T07:37:05.299Z,22.75
2023-12-17T07:42:06.709Z,14.77
2023-12-17T07:47:08.158Z,13.82
2023-12-17T07:52:09.408Z,11.85
2023-12-17T07:57:10.769Z,13.52
2023-12-17T08:02:12.087Z,13.68
2023-12-17T08:07:13.599Z,11.93
2023-12-17T08:12:15.060Z,10.48
2023-12-17T08:17:16.520Z,15.45
2023-12-17T08:22:18.263Z,13.55
2023-12-17T08:27:19.597Z,14.27
2023-12-17T08:32:20.849Z,10.73
2023-12-17T08:37:22.066Z,13.18
2023-12-17T08:42:23.473Z,13.10
2023-12-17T08:47:24.801Z,14.10
2023-12-17T08:52:26.042Z,10.30
2023-12-17T08:57:27.338Z,13.68
2023-12-17T09:02:28.918Z,11.93
2023-12-17T09:07:30.250Z,16.85
2023-12-17T09:12:31.575Z,13.27
2023-12-17T09:17:32.882Z,12.07
2023-12-17T09:22:34.130Z,14.73
2023-12-17T09:27:35.363Z,16.40
2023-12-17T09:32:36.643Z,10.68
2023-12-17T09:37:38.733Z,9.55
2023-12-17T09:42:43.087Z,9.55
2023-12-17T09:47:44.755Z,9.07
2023-12-17T09:52:46.474Z,9.80
2023-12-17T09:57:47.692Z,10.55
2023-12-17T10:02:49.263Z,9.25
2023-12-17T10:07:50.521Z,9.88
2023-12-17T10:12:51.904Z,10.82
2023-12-17T10:17:53.502Z,13.32
2023-12-17T10:22:57.703Z,16.15
2023-12-17T10:27:59.728Z,19.35
2023-12-17T10:33:02.253Z,15.38
2023-12-17T10:38:04.213Z,18.30
2023-12-17T10:43:05.865Z,16.75
2023-12-17T10:48:07.672Z,18.42
2023-12-17T10:53:09.012Z,19.33
2023-12-17T10:58:12.808Z,32.75
2023-12-17T11:03:14.340Z,22.10
2023-12-17T11:08:15.852Z,22.00
2023-12-17T11:13:20.782Z,20.70
2023-12-17T11:18:22.157Z,23.55
2023-12-17T11:23:23.485Z,19.15
2023-12-17T11:28:25.204Z,21.08
2023-12-17T11:33:27.004Z,19.20
2023-12-17T11:38:28.382Z,15.98
2023-12-17T11:43:29.605Z,15.05
2023-12-17T11:48:31.050Z,23.00
2023-12-17T11:53:41.400Z,21.20
2023-12-17T11:58:46.209Z,20.02
2023-12-17T12:03:47.586Z,18.70
2023-12-17T12:08:48.975Z,17.55
2023-12-17T12:13:51.131Z,15.85
2023-12-17T12:19:04.831Z,15.48
2023-12-17T12:24:09.836Z,22.45
2023-12-17T12:29:11.307Z,18.52
2023-12-17T12:34:12.653Z,19.33
2023-12-17T12:39:14.684Z,21.20
2023-12-17T12:44:16.886Z,21.20
2023-12-17T12:49:18.366Z,20.08
2023-12-17T12:54:19.833Z,18.00
2023-12-17T12:59:23.740Z,25.25
2023-12-17T13:04:26.788Z,24.17
2023-12-17T13:09:28.138Z,26.75
2023-12-17T13:14:29.415Z,24.23
2023-12-17T13:19:32.191Z,23.10
2023-12-17T13:24:33.554Z,23.67
2023-12-17T13:29:34.825Z,20.65
2023-12-17T13:34:36.112Z,20.98
2023-12-17T13:39:37.473Z,19.85
2023-12-17T13:44:38.783Z,22.08
2023-12-17T13:49:40.292Z,20.48
2023-12-17T13:54:41.785Z,23.83
2023-12-17T13:59:43.070Z,19.17
2023-12-17T14:04:44.631Z,21.13
2023-12-17T14:09:45.872Z,21.85
2023-12-17T14:14:47.265Z,14.35
2023-12-17T14:19:48.586Z,14.82
2023-12-17T14:24:49.941Z,19.38
2023-12-17T14:29:51.539Z,16.10
2023-12-17T14:34:53.057Z,18.08
2023-12-17T14:39:54.425Z,15.52
2023-12-17T14:44:55.828Z,18.40
2023-12-17T14:49:57.202Z,16.73
2023-12-17T14:54:58.440Z,16.83
2023-12-17T14:59:59.714Z,18.95
2023-12-17T15:05:01.979Z,17.10
2023-12-17T15:10:03.996Z,17.25
2023-12-17T15:15:05.578Z,15.55
2023-12-17T15:20:07.532Z,16.80
2023-12-17T15:25:08.953Z,17.15
2023-12-17T15:30:10.787Z,16.30
2023-12-17T15:35:12.462Z,16.20
2023-12-17T15:40:14.189Z,14.35
2023-12-17T15:45:15.529Z,17.42
2023-12-17T15:50:16.940Z,17.38
2023-12-17T15:55:18.206Z,15.48
2023-12-17T16:00:19.762Z,17.70
2023-12-17T16:05:21.114Z,19.50
2023-12-17T16:10:22.371Z,21.35
2023-12-17T16:15:23.688Z,20.85
2023-12-17T16:20:24.991Z,23.08
2023-12-17T16:25:26.330Z,22.70
2023-12-17T16:30:27.709Z,22.38
2023-12-17T16:35:29.152Z,21.75
2023-12-17T16:40:30.730Z,26.25
2023-12-17T16:45:32.104Z,20.83
2023-12-17T16:50:33.410Z,18.55
2023-12-17T16:55:34.663Z,23.63
2023-12-17T17:00:36.494Z,24.05
2023-12-17T17:05:37.873Z,21.80
2023-12-17T17:10:39.120Z,22.55
2023-12-17T17:15:40.387Z,26.77
2023-12-17T17:20:41.741Z,22.35
2023-12-17T17:25:43.073Z,21.80
2023-12-17T17:30:44.514Z,23.40
2023-12-17T17:35:45.794Z,20.55
2023-12-17T17:40:47.152Z,20.45
2023-12-17T17:45:48.390Z,25.75
2023-12-17T17:50:49.647Z,21.60
2023-12-17T17:55:51.039Z,30.02
2023-12-17T18:00:53.083Z,25.63
2023-12-17T18:05:55.292Z,21.98
2023-12-17T18:10:56.779Z,20.45
2023-12-17T18:15:58.021Z,19.27
2023-12-17T18:20:59.330Z,25.98
2023-12-17T18:26:00.580Z,26.90
2023-12-17T18:31:02.174Z,18.83
2023-12-17T18:36:03.615Z,24.67
2023-12-17T18:41:04.865Z,21.05
2023-12-17T18:46:16.058Z,26.13
2023-12-17T18:51:17.461Z,20.63
2023-12-17T18:56:18.815Z,27.10
2023-12-17T19:01:20.086Z,22.73
2023-12-17T19:06:21.820Z,23.63
2023-12-17T19:11:23.131Z,27.33
2023-12-17T19:16:24.400Z,18.38
2023-12-17T19:21:25.728Z,23.50
2023-12-17T19:26:27.017Z,24.00
2023-12-17T19:31:28.606Z,22.92
2023-12-17T19:36:29.898Z,20.35
2023-12-17T19:41:31.140Z,20.10
2023-12-17T19:46:32.498Z,22.67
2023-12-17T19:51:33.806Z,26.58
2023-12-17T19:56:35.117Z,23.40
2023-12-17T20:01:36.403Z,20.13
2023-12-17T20:06:37.728Z,20.73
2023-12-17T20:11:39.075Z,26.05
2023-12-17T20:16:40.344Z,19.38
2023-12-17T20:21:41.594Z,21.73
2023-12-17T20:26:42.914Z,21.65
2023-12-17T20:31:44.445Z,20.10
2023-12-17T20:36:45.698Z,18.02
2023-12-17T20:41:46.932Z,17.35
2023-12-17T20:46:49.528Z,26.25
2023-12-17T20:51:50.946Z,19.08
2023-12-17T20:56:52.224Z,21.35
2023-12-17T21:01:53.444Z,22.48
2023-12-17T21:06:55.031Z,26.85
2023-12-17T21:11:56.491Z,23.50
2023-12-17T21:16:57.806Z,22.35
2023-12-17T21:21:59.090Z,27.17
2023-12-17T21:27:02.986Z,25.42
2023-12-17T21:32:05.173Z,23.13
2023-12-17T21:37:06.405Z,20.60
2023-12-17T21:42:08.865Z,20.98
2023-12-17T21:47:10.157Z,19.10
2023-12-17T21:52:24.169Z,16.17
2023-12-17T21:57:41.120Z,20.92
2023-12-17T22:02:45.106Z,18.60
2023-12-17T22:07:46.795Z,20.50
2023-12-17T22:12:48.113Z,21.13
2023-12-17T22:17:49.691Z,19.90
2023-12-17T22:22:51.009Z,18.33
2023-12-17T22:27:52.316Z,23.55
2023-12-17T22:32:53.613Z,25.17
2023-12-17T22:37:54.860Z,23.67
2023-12-17T22:42:56.117Z,31.52
2023-12-17T22:47:57.443Z,29.98
2023-12-17T22:52:58.827Z,30.60
2023-12-17T22:58:00.816Z,27.10
2023-12-17T23:03:02.169Z,24.63
2023-12-17T23:08:03.621Z,25.42
2023-12-17T23:13:04.979Z,22.33
2023-12-17T23:18:06.508Z,27.52
2023-12-17T23:23:07.857Z,22.05
2023-12-17T23:28:09.125Z,34.17
2023-12-17T23:33:10.524Z,27.88
2023-12-17T23:38:11.920Z,21.90
2023-12-17T23:43:13.190Z,26.45
2023-12-17T23:48:14.526Z,22.13
2023-12-17T23:53:15.826Z,24.05
2023-12-17T23:58:17.077Z,24.65
